Terminal Aerodrome Forecast
Issued by NWS

Home | Current Version | Previous Version | Text Only | Print | Product List | Glossary On
Versions: 1 2 3 4 5 6 7 8 9 10 11 12 13 14 15 16 17 18 19 20 21
000
FTUS45 KCYS 271734
TAFLAR
TAF
KLAR 271734Z 2718/2818 VRB06KT P6SM SCT100 BKN150
     FM272100 16014G20KT P6SM VCTS SCT100CB BKN150
     FM280000 16012KT P6SM BKN150
     FM280300 18009KT P6SM SCT100=

USA.gov is the U.S. government's official web portal to all federal, state and local government web resources and services.